sensor_id;sensor_type;location;lat;lon;timestamp;pressure;altitude;pressure_sealevel;temperature;humidity
47738;BME280;33502;47.182;27.506;2022-11-18T00:01:31;99093.59;;;1.06;100.00
47738;BME280;33502;47.182;27.506;2022-11-18T00:03:57;99099.72;;;1.05;100.00
47738;BME280;33502;47.182;27.506;2022-11-18T00:06:25;99106.66;;;1.05;100.00
47738;BME280;33502;47.182;27.506;2022-11-18T00:08:53;99109.22;;;1.06;100.00
47738;BME280;33502;47.182;27.506;2022-11-18T00:11:24;99109.19;;;1.08;100.00
47738;BME280;33502;47.182;27.506;2022-11-18T00:14:17;99114.41;;;1.08;100.00
47738;BME280;33502;47.182;27.506;2022-11-18T00:16:51;99110.03;;;1.08;100.00
47738;BME280;33502;47.182;27.506;2022-11-18T00:19:18;99118.78;;;1.07;100.00
47738;BME280;33502;47.182;27.506;2022-11-18T00:21:44;99108.25;;;1.10;100.00
47738;BME280;33502;47.182;27.506;2022-11-18T00:24:10;99094.38;;;1.10;100.00
47738;BME280;33502;47.182;27.506;2022-11-18T00:26:36;99094.34;;;1.11;100.00
47738;BME280;33502;47.182;27.506;2022-11-18T00:29:02;99096.16;;;1.08;100.00
47738;BME280;33502;47.182;27.506;2022-11-18T00:31:28;99084.94;;;1.04;100.00
47738;BME280;33502;47.182;27.506;2022-11-18T00:33:54;99090.16;;;1.04;100.00
47738;BME280;33502;47.182;27.506;2022-11-18T00:36:20;99082.34;;;1.04;100.00
47738;BME280;33502;47.182;27.506;2022-11-18T00:38:46;99080.56;;;1.05;100.00
47738;BME280;33502;47.182;27.506;2022-11-18T00:41:13;99077.94;;;1.06;100.00
47738;BME280;33502;47.182;27.506;2022-11-18T00:43:40;99064.94;;;1.05;100.00
47738;BME280;33502;47.182;27.506;2022-11-18T00:46:08;99063.16;;;1.07;100.00
47738;BME280;33502;47.182;27.506;2022-11-18T00:48:35;99060.53;;;1.07;100.00
47738;BME280;33502;47.182;27.506;2022-11-18T00:51:16;99064.09;;;1.04;100.00
47738;BME280;33502;47.182;27.506;2022-11-18T00:53:43;99062.34;;;1.03;100.00
47738;BME280;33502;47.182;27.506;2022-11-18T00:56:09;99057.09;;;1.06;100.00
47738;BME280;33502;47.182;27.506;2022-11-18T00:58:35;99056.22;;;1.07;100.00
47738;BME280;33502;47.182;27.506;2022-11-18T01:01:02;99050.09;;;1.08;100.00
47738;BME280;33502;47.182;27.506;2022-11-18T01:03:29;99034.53;;;1.05;100.00
47738;BME280;33502;47.182;27.506;2022-11-18T01:05:55;99035.53;;;1.00;100.00
47738;BME280;33502;47.182;27.506;2022-11-18T01:08:21;99047.81;;;0.94;100.00
47738;BME280;33502;47.182;27.506;2022-11-18T01:10:47;99055.69;;;0.91;100.00
47738;BME280;33502;47.182;27.506;2022-11-18T01:13:16;99059.28;;;0.87;100.00
47738;BME280;33502;47.182;27.506;2022-11-18T01:15:50;99056.81;;;0.81;100.00
47738;BME280;33502;47.182;27.506;2022-11-18T01:18:18;99056.00;;;0.79;100.00
47738;BME280;33502;47.182;27.506;2022-11-18T01:20:45;99057.69;;;0.80;100.00
47738;BME280;33502;47.182;27.506;2022-11-18T01:23:12;99070.78;;;0.78;100.00
47738;BME280;33502;47.182;27.506;2022-11-18T01:25:39;99080.31;;;0.78;100.00
47738;BME280;33502;47.182;27.506;2022-11-18T01:28:06;99082.16;;;0.74;100.00
47738;BME280;33502;47.182;27.506;2022-11-18T01:30:34;99091.72;;;0.74;100.00
47738;BME280;33502;47.182;27.506;2022-11-18T01:33:01;99070.88;;;0.74;100.00
47738;BME280;33502;47.182;27.506;2022-11-18T01:35:27;99070.88;;;0.74;100.00
47738;BME280;33502;47.182;27.506;2022-11-18T01:37:52;99064.88;;;0.70;100.00
47738;BME280;33502;47.182;27.506;2022-11-18T01:40:18;99078.06;;;0.63;100.00
47738;BME280;33502;47.182;27.506;2022-11-18T01:42:44;99079.97;;;0.56;100.00
47738;BME280;33502;47.182;27.506;2022-11-18T01:45:37;99069.63;;;0.51;100.00
47738;BME280;33502;47.182;27.506;2022-11-18T01:50:34;99090.72;;;0.41;100.00
47738;BME280;33502;47.182;27.506;2022-11-18T01:53:04;99091.53;;;0.44;100.00
47738;BME280;33502;47.182;27.506;2022-11-18T01:55:34;99092.41;;;0.42;100.00
47738;BME280;33502;47.182;27.506;2022-11-18T01:58:15;99095.13;;;0.37;100.00
47738;BME280;33502;47.182;27.506;2022-11-18T02:00:42;99097.78;;;0.34;100.00
47738;BME280;33502;47.182;27.506;2022-11-18T02:03:08;99088.34;;;0.28;100.00
47738;BME280;33502;47.182;27.506;2022-11-18T02:05:35;99085.00;;;0.23;100.00
47738;BME280;33502;47.182;27.506;2022-11-18T02:08:02;99074.63;;;0.22;100.00
47738;BME280;33502;47.182;27.506;2022-11-18T02:10:27;99072.97;;;0.17;100.00
47738;BME280;33502;47.182;27.506;2022-11-18T02:12:54;99085.16;;;0.15;100.00
47738;BME280;33502;47.182;27.506;2022-11-18T02:18:23;99060.31;;;-0.01;100.00
47738;BME280;33502;47.182;27.506;2022-11-18T02:24:08;99069.09;;;-0.07;100.00
47738;BME280;33502;47.182;27.506;2022-11-18T02:26:59;99058.81;;;-0.13;100.00
47738;BME280;33502;47.182;27.506;2022-11-18T02:29:55;99067.78;;;-0.28;100.00
47738;BME280;33502;47.182;27.506;2022-11-18T02:35:09;99067.13;;;-0.41;100.00
47738;BME280;33502;47.182;27.506;2022-11-18T02:40:23;99081.03;;;-0.42;100.00
47738;BME280;33502;47.182;27.506;2022-11-18T02:42:55;99072.28;;;-0.36;100.00
47738;BME280;33502;47.182;27.506;2022-11-18T02:45:25;99073.84;;;-0.29;100.00
47738;BME280;33502;47.182;27.506;2022-11-18T02:47:51;99072.03;;;-0.24;100.00
47738;BME280;33502;47.182;27.506;2022-11-18T02:50:23;99084.97;;;-0.19;100.00
47738;BME280;33502;47.182;27.506;2022-11-18T02:52:56;99084.84;;;-0.13;100.00
47738;BME280;33502;47.182;27.506;2022-11-18T02:55:24;99089.06;;;-0.06;100.00
47738;BME280;33502;47.182;27.506;2022-11-18T02:57:53;99096.72;;;0.02;100.00
47738;BME280;33502;47.182;27.506;2022-11-18T03:00:19;99087.00;;;0.10;100.00
47738;BME280;33502;47.182;27.506;2022-11-18T03:02:47;99083.50;;;0.11;100.00
47738;BME280;33502;47.182;27.506;2022-11-18T03:07:52;99069.09;;;-0.05;100.00
47738;BME280;33502;47.182;27.506;2022-11-18T03:10:20;99085.53;;;-0.05;100.00
47738;BME280;33502;47.182;27.506;2022-11-18T03:13:01;99098.59;;;-0.06;100.00
47738;BME280;33502;47.182;27.506;2022-11-18T03:15:35;99097.72;;;-0.05;100.00
47738;BME280;33502;47.182;27.506;2022-11-18T03:20:54;99093.47;;;-0.09;100.00
47738;BME280;33502;47.182;27.506;2022-11-18T03:26:07;99127.22;;;-0.06;100.00
47738;BME280;33502;47.182;27.506;2022-11-18T03:28:59;99132.38;;;-0.03;100.00
47738;BME280;33502;47.182;27.506;2022-11-18T03:31:29;99130.59;;;-0.01;100.00
47738;BME280;33502;47.182;27.506;2022-11-18T03:34:04;99135.69;;;0.04;100.00
47738;BME280;33502;47.182;27.506;2022-11-18T03:36:35;99131.38;;;0.04;100.00
47738;BME280;33502;47.182;27.506;2022-11-18T03:39:04;99127.88;;;0.05;100.00
47738;BME280;33502;47.182;27.506;2022-11-18T03:41:35;99136.50;;;0.07;100.00
47738;BME280;33502;47.182;27.506;2022-11-18T03:44:20;99126.91;;;0.09;100.00
47738;BME280;33502;47.182;27.506;2022-11-18T03:46:53;99125.19;;;0.10;100.00
47738;BME280;33502;47.182;27.506;2022-11-18T03:49:24;99112.06;;;0.14;100.00
47738;BME280;33502;47.182;27.506;2022-11-18T03:51:57;99110.34;;;0.13;100.00
47738;BME280;33502;47.182;27.506;2022-11-18T03:54:29;99123.34;;;0.13;100.00
47738;BME280;33502;47.182;27.506;2022-11-18T03:57:02;99117.28;;;0.14;100.00
47738;BME280;33502;47.182;27.506;2022-11-18T03:59:37;99115.56;;;0.13;100.00
47738;BME280;33502;47.182;27.506;2022-11-18T04:02:20;99119.00;;;0.15;100.00
47738;BME280;33502;47.182;27.506;2022-11-18T04:04:49;99129.41;;;0.15;100.00
47738;BME280;33502;47.182;27.506;2022-11-18T04:12:53;99113.69;;;0.22;100.00
47738;BME280;33502;47.182;27.506;2022-11-18T04:15:23;99115.38;;;0.23;100.00
47738;BME280;33502;47.182;27.506;2022-11-18T04:17:49;99120.56;;;0.23;100.00
47738;BME280;33502;47.182;27.506;2022-11-18T04:20:20;99133.59;;;0.23;100.00
47738;BME280;33502;47.182;27.506;2022-11-18T04:22:46;99136.19;;;0.23;100.00
47738;BME280;33502;47.182;27.506;2022-11-18T04:25:12;99134.47;;;0.23;100.00
47738;BME280;33502;47.182;27.506;2022-11-18T04:27:38;99136.19;;;0.24;100.00
47738;BME280;33502;47.182;27.506;2022-11-18T04:30:05;99130.94;;;0.26;100.00
47738;BME280;33502;47.182;27.506;2022-11-18T04:32:31;99134.41;;;0.26;100.00
47738;BME280;33502;47.182;27.506;2022-11-18T04:34:57;99150.78;;;0.31;100.00
47738;BME280;33502;47.182;27.506;2022-11-18T04:37:23;99145.63;;;0.28;100.00
47738;BME280;33502;47.182;27.506;2022-11-18T04:39:49;99136.97;;;0.28;100.00
47738;BME280;33502;47.182;27.506;2022-11-18T04:42:15;99127.50;;;0.24;100.00
47738;BME280;33502;47.182;27.506;2022-11-18T04:44:40;99114.50;;;0.24;100.00
47738;BME280;33502;47.182;27.506;2022-11-18T04:47:06;99121.47;;;0.22;100.00
47738;BME280;33502;47.182;27.506;2022-11-18T04:49:33;99123.25;;;0.21;100.00
47738;BME280;33502;47.182;27.506;2022-11-18T04:51:59;99126.72;;;0.20;100.00
47738;BME280;33502;47.182;27.506;2022-11-18T04:54:27;99131.00;;;0.23;100.00
47738;BME280;33502;47.182;27.506;2022-11-18T04:56:53;99124.81;;;0.28;100.00
47738;BME280;33502;47.182;27.506;2022-11-18T04:59:22;99122.03;;;0.36;100.00
47738;BME280;33502;47.182;27.506;2022-11-18T05:01:49;99120.22;;;0.41;100.00
47738;BME280;33502;47.182;27.506;2022-11-18T05:04:18;99130.59;;;0.44;100.00
47738;BME280;33502;47.182;27.506;2022-11-18T05:06:44;99141.72;;;0.51;100.00
47738;BME280;33502;47.182;27.506;2022-11-18T05:09:10;99141.66;;;0.54;100.00
47738;BME280;33502;47.182;27.506;2022-11-18T05:11:36;99150.31;;;0.56;100.00
47738;BME280;33502;47.182;27.506;2022-11-18T05:14:21;99173.72;;;0.57;100.00
47738;BME280;33502;47.182;27.506;2022-11-18T05:16:49;99182.38;;;0.58;100.00
47738;BME280;33502;47.182;27.506;2022-11-18T05:19:15;99185.88;;;0.57;100.00
47738;BME280;33502;47.182;27.506;2022-11-18T05:21:40;99186.75;;;0.57;100.00
47738;BME280;33502;47.182;27.506;2022-11-18T05:24:06;99189.34;;;0.57;100.00
47738;BME280;33502;47.182;27.506;2022-11-18T05:26:32;99185.78;;;0.62;100.00
47738;BME280;33502;47.182;27.506;2022-11-18T05:28:58;99181.44;;;0.62;100.00
47738;BME280;33502;47.182;27.506;2022-11-18T05:31:24;99176.22;;;0.62;100.00
47738;BME280;33502;47.182;27.506;2022-11-18T05:33:49;99191.81;;;0.65;100.00
47738;BME280;33502;47.182;27.506;2022-11-18T05:36:17;99200.44;;;0.67;100.00
47738;BME280;33502;47.182;27.506;2022-11-18T05:38:44;99186.53;;;0.67;100.00
47738;BME280;33502;47.182;27.506;2022-11-18T05:41:10;99183.03;;;0.69;100.00
47738;BME280;33502;47.182;27.506;2022-11-18T05:43:56;99182.09;;;0.72;100.00
47738;BME280;33502;47.182;27.506;2022-11-18T05:46:23;99185.53;;;0.74;100.00
47738;BME280;33502;47.182;27.506;2022-11-18T05:48:48;99174.19;;;0.76;100.00
47738;BME280;33502;47.182;27.506;2022-11-18T05:51:14;99162.00;;;0.77;100.00
47738;BME280;33502;47.182;27.506;2022-11-18T05:53:40;99169.75;;;0.80;100.00
47738;BME280;33502;47.182;27.506;2022-11-18T05:56:17;99167.97;;;0.82;100.00
47738;BME280;33502;47.182;27.506;2022-11-18T05:58:44;99171.28;;;0.90;100.00
47738;BME280;33502;47.182;27.506;2022-11-18T06:01:11;99169.31;;;1.00;100.00
47738;BME280;33502;47.182;27.506;2022-11-18T06:03:39;99166.72;;;1.00;100.00
47738;BME280;33502;47.182;27.506;2022-11-18T06:06:08;99163.28;;;1.00;100.00
47738;BME280;33502;47.182;27.506;2022-11-18T06:08:39;99168.38;;;1.04;100.00
47738;BME280;33502;47.182;27.506;2022-11-18T06:11:07;99165.59;;;1.10;100.00
47738;BME280;33502;47.182;27.506;2022-11-18T06:13:39;99158.44;;;1.20;100.00
47738;BME280;33502;47.182;27.506;2022-11-18T06:16:07;99155.66;;;1.28;100.00
47738;BME280;33502;47.182;27.506;2022-11-18T06:18:33;99143.34;;;1.33;100.00
47738;BME280;33502;47.182;27.506;2022-11-18T06:21:02;99145.78;;;1.41;100.00
47738;BME280;33502;47.182;27.506;2022-11-18T06:23:34;99154.34;;;1.47;100.00
47738;BME280;33502;47.182;27.506;2022-11-18T06:26:02;99156.81;;;1.52;100.00
47738;BME280;33502;47.182;27.506;2022-11-18T06:28:28;99162.72;;;1.59;100.00
47738;BME280;33502;47.182;27.506;2022-11-18T06:30:54;99164.28;;;1.66;100.00
47738;BME280;33502;47.182;27.506;2022-11-18T06:33:20;99163.22;;;1.74;100.00
47738;BME280;33502;47.182;27.506;2022-11-18T06:35:46;99169.41;;;1.70;100.00
47738;BME280;33502;47.182;27.506;2022-11-18T06:38:11;99182.31;;;1.76;100.00
47738;BME280;33502;47.182;27.506;2022-11-18T06:40:37;99187.41;;;1.81;100.00
47738;BME280;33502;47.182;27.506;2022-11-18T06:43:07;99200.19;;;1.92;100.00
47738;BME280;33502;47.182;27.506;2022-11-18T06:45:52;99202.34;;;2.10;100.00
47738;BME280;33502;47.182;27.506;2022-11-18T06:48:36;99200.75;;;2.05;100.00
47738;BME280;33502;47.182;27.506;2022-11-18T06:51:05;99200.16;;;1.93;100.00
47738;BME280;33502;47.182;27.506;2022-11-18T06:53:33;99193.22;;;1.91;100.00
47738;BME280;33502;47.182;27.506;2022-11-18T06:56:12;99189.03;;;1.85;100.00
47738;BME280;33502;47.182;27.506;2022-11-18T06:58:39;99188.91;;;1.91;100.00
47738;BME280;33502;47.182;27.506;2022-11-18T07:01:20;99192.91;;;2.05;100.00
47738;BME280;33502;47.182;27.506;2022-11-18T07:03:46;99179.47;;;2.19;100.00
47738;BME280;33502;47.182;27.506;2022-11-18T07:06:15;99162.63;;;2.29;100.00
47738;BME280;33502;47.182;27.506;2022-11-18T07:08:41;99151.88;;;2.41;100.00
47738;BME280;33502;47.182;27.506;2022-11-18T07:11:10;99131.69;;;2.76;100.00
47738;BME280;33502;47.182;27.506;2022-11-18T07:13:37;99122.19;;;3.28;100.00
47738;BME280;33502;47.182;27.506;2022-11-18T07:16:04;99124.78;;;4.56;100.00
47738;BME280;33502;47.182;27.506;2022-11-18T07:18:35;99128.88;;;5.53;100.00
47738;BME280;33502;47.182;27.506;2022-11-18T07:21:07;99129.09;;;5.26;100.00
47738;BME280;33502;47.182;27.506;2022-11-18T07:23:34;99123.72;;;5.07;100.00
47738;BME280;33502;47.182;27.506;2022-11-18T07:26:00;99130.00;;;4.57;100.00
47738;BME280;33502;47.182;27.506;2022-11-18T07:28:27;99127.94;;;4.42;100.00
47738;BME280;33502;47.182;27.506;2022-11-18T07:30:52;99135.56;;;5.39;100.00
47738;BME280;33502;47.182;27.506;2022-11-18T07:33:24;99147.28;;;8.02;100.00
47738;BME280;33502;47.182;27.506;2022-11-18T07:35:50;99144.75;;;9.93;100.00
47738;BME280;33502;47.182;27.506;2022-11-18T07:38:16;99145.34;;;10.43;100.00
47738;BME280;33502;47.182;27.506;2022-11-18T07:40:41;99142.41;;;10.76;100.00
47738;BME280;33502;47.182;27.506;2022-11-18T07:43:07;99140.78;;;10.88;100.00
47738;BME280;33502;47.182;27.506;2022-11-18T07:45:33;99153.22;;;9.38;100.00
47738;BME280;33502;47.182;27.506;2022-11-18T07:47:59;99157.84;;;7.30;100.00
47738;BME280;33502;47.182;27.506;2022-11-18T07:50:25;99148.94;;;5.76;100.00
47738;BME280;33502;47.182;27.506;2022-11-18T07:52:54;99148.22;;;4.84;100.00
47738;BME280;33502;47.182;27.506;2022-11-18T07:55:20;99141.41;;;4.07;100.00
47738;BME280;33502;47.182;27.506;2022-11-18T07:57:45;99136.84;;;3.61;100.00
47738;BME280;33502;47.182;27.506;2022-11-18T08:00:11;99140.44;;;3.31;100.00
47738;BME280;33502;47.182;27.506;2022-11-18T08:02:40;99141.47;;;2.98;100.00
47738;BME280;33502;47.182;27.506;2022-11-18T08:05:08;99134.16;;;2.81;100.00
47738;BME280;33502;47.182;27.506;2022-11-18T08:07:34;99126.31;;;2.81;100.00
47738;BME280;33502;47.182;27.506;2022-11-18T08:10:00;99129.69;;;2.84;100.00
47738;BME280;33502;47.182;27.506;2022-11-18T08:12:28;99131.28;;;2.88;100.00
47738;BME280;33502;47.182;27.506;2022-11-18T08:14:57;99130.69;;;2.80;100.00
47738;BME280;33502;47.182;27.506;2022-11-18T08:17:23;99126.59;;;2.71;100.00
47738;BME280;33502;47.182;27.506;2022-11-18T08:19:48;99139.84;;;2.65;100.00
47738;BME280;33502;47.182;27.506;2022-11-18T08:22:14;99141.75;;;2.60;100.00
47738;BME280;33502;47.182;27.506;2022-11-18T08:24:43;99151.97;;;2.68;100.00
47738;BME280;33502;47.182;27.506;2022-11-18T08:27:09;99142.22;;;2.73;100.00
47738;BME280;33502;47.182;27.506;2022-11-18T08:29:35;99157.88;;;2.74;100.00
47738;BME280;33502;47.182;27.506;2022-11-18T08:32:00;99158.47;;;2.83;100.00
47738;BME280;33502;47.182;27.506;2022-11-18T08:34:26;99155.78;;;2.86;100.00
47738;BME280;33502;47.182;27.506;2022-11-18T08:36:52;99155.88;;;2.83;100.00
47738;BME280;33502;47.182;27.506;2022-11-18T08:39:18;99161.97;;;2.83;100.00
47738;BME280;33502;47.182;27.506;2022-11-18T08:41:44;99170.09;;;2.74;100.00
47738;BME280;33502;47.182;27.506;2022-11-18T08:44:13;99171.97;;;2.69;100.00
47738;BME280;33502;47.182;27.506;2022-11-18T08:46:39;99178.44;;;2.55;100.00
47738;BME280;33502;47.182;27.506;2022-11-18T08:49:05;99182.09;;;2.50;100.00
47738;BME280;33502;47.182;27.506;2022-11-18T08:51:31;99184.81;;;2.47;100.00
47738;BME280;33502;47.182;27.506;2022-11-18T08:53:57;99172.75;;;2.41;100.00
47738;BME280;33502;47.182;27.506;2022-11-18T08:56:24;99172.97;;;2.33;100.00
47738;BME280;33502;47.182;27.506;2022-11-18T08:58:50;99164.16;;;2.38;100.00
47738;BME280;33502;47.182;27.506;2022-11-18T09:01:16;99161.44;;;2.41;100.00
47738;BME280;33502;47.182;27.506;2022-11-18T09:03:42;99147.56;;;2.39;100.00
47738;BME280;33502;47.182;27.506;2022-11-18T09:06:10;99145.03;;;2.37;100.00
47738;BME280;33502;47.182;27.506;2022-11-18T09:08:37;99131.06;;;2.37;100.00
47738;BME280;33502;47.182;27.506;2022-11-18T09:11:11;99129.28;;;2.39;100.00
47738;BME280;33502;47.182;27.506;2022-11-18T09:13:37;99132.00;;;2.35;100.00
47738;BME280;33502;47.182;27.506;2022-11-18T09:16:04;99119.78;;;2.36;100.00
47738;BME280;33502;47.182;27.506;2022-11-18T09:18:31;99124.28;;;2.31;100.00
47738;BME280;33502;47.182;27.506;2022-11-18T09:20:58;99121.53;;;2.35;100.00
47738;BME280;33502;47.182;27.506;2022-11-18T09:23:25;99108.44;;;2.37;100.00
47738;BME280;33502;47.182;27.506;2022-11-18T09:25:58;99104.84;;;2.41;100.00
47738;BME280;33502;47.182;27.506;2022-11-18T09:28:24;99102.31;;;2.38;100.00
47738;BME280;33502;47.182;27.506;2022-11-18T09:30:50;99101.50;;;2.36;100.00
47738;BME280;33502;47.182;27.506;2022-11-18T09:33:16;99097.13;;;2.37;100.00
47738;BME280;33502;47.182;27.506;2022-11-18T09:35:43;99096.00;;;2.45;100.00
47738;BME280;33502;47.182;27.506;2022-11-18T09:38:09;99081.31;;;2.41;100.00
47738;BME280;33502;47.182;27.506;2022-11-18T09:46:04;99076.00;;;2.44;100.00
47738;BME280;33502;47.182;27.506;2022-11-18T09:48:30;99074.41;;;2.39;100.00
47738;BME280;33502;47.182;27.506;2022-11-18T09:51:18;99078.88;;;2.35;100.00
47738;BME280;33502;47.182;27.506;2022-11-18T09:53:44;99069.28;;;2.35;100.00
47738;BME280;33502;47.182;27.506;2022-11-18T09:56:14;99076.25;;;2.35;100.00
47738;BME280;33502;47.182;27.506;2022-11-18T09:58:41;99079.81;;;2.32;100.00
47738;BME280;33502;47.182;27.506;2022-11-18T10:01:11;99071.94;;;2.34;100.00
47738;BME280;33502;47.182;27.506;2022-11-18T10:03:38;99065.81;;;2.35;100.00
47738;BME280;33502;47.182;27.506;2022-11-18T10:09:09;99058.75;;;2.39;100.00
47738;BME280;33502;47.182;27.506;2022-11-18T10:25:41;99033.69;;;2.61;100.00
47738;BME280;33502;47.182;27.506;2022-11-18T10:28:25;99037.84;;;2.67;100.00
47738;BME280;33502;47.182;27.506;2022-11-18T10:30:54;99049.00;;;2.73;100.00
47738;BME280;33502;47.182;27.506;2022-11-18T10:33:28;99055.06;;;2.74;100.00
47738;BME280;33502;47.182;27.506;2022-11-18T10:38:43;99046.78;;;2.88;100.00
47738;BME280;33502;47.182;27.506;2022-11-18T10:41:13;99053.53;;;2.95;100.00
47738;BME280;33502;47.182;27.506;2022-11-18T10:43:55;99055.22;;;2.96;100.00
47738;BME280;33502;47.182;27.506;2022-11-18T10:46:29;99058.00;;;2.91;100.00
47738;BME280;33502;47.182;27.506;2022-11-18T10:51:34;99065.19;;;2.85;100.00
47738;BME280;33502;47.182;27.506;2022-11-18T10:56:53;99055.31;;;2.94;100.00
47738;BME280;33502;47.182;27.506;2022-11-18T10:59:31;99063.94;;;2.97;100.00
47738;BME280;33502;47.182;27.506;2022-11-18T11:04:43;99069.94;;;3.00;100.00
47738;BME280;33502;47.182;27.506;2022-11-18T11:07:35;99067.25;;;3.02;100.00
47738;BME280;33502;47.182;27.506;2022-11-18T11:12:32;99056.66;;;3.06;100.00
47738;BME280;33502;47.182;27.506;2022-11-18T11:15:02;99056.50;;;3.11;100.00
47738;BME280;33502;47.182;27.506;2022-11-18T11:17:38;99058.22;;;3.12;100.00
47738;BME280;33502;47.182;27.506;2022-11-18T11:20:22;99050.25;;;3.15;100.00
47738;BME280;33502;47.182;27.506;2022-11-18T11:22:48;99048.56;;;3.14;100.00
47738;BME280;33502;47.182;27.506;2022-11-18T11:27:51;99059.75;;;3.19;100.00
47738;BME280;33502;47.182;27.506;2022-11-18T11:30:23;99050.09;;;3.21;100.00
47738;BME280;33502;47.182;27.506;2022-11-18T11:39:30;99059.75;;;3.19;100.00
47738;BME280;33502;47.182;27.506;2022-11-18T11:44:57;99047.34;;;3.24;100.00
47738;BME280;33502;47.182;27.506;2022-11-18T11:50:29;99054.34;;;3.24;100.00
47738;BME280;33502;47.182;27.506;2022-11-18T11:58:48;99051.81;;;3.21;100.00
47738;BME280;33502;47.182;27.506;2022-11-18T12:01:42;99055.31;;;3.21;100.00
47738;BME280;33502;47.182;27.506;2022-11-18T12:04:15;99051.72;;;3.24;100.00
47738;BME280;33502;47.182;27.506;2022-11-18T12:06:50;99054.97;;;3.30;100.00
47738;BME280;33502;47.182;27.506;2022-11-18T12:19:24;99040.16;;;3.31;100.00
47738;BME280;33502;47.182;27.506;2022-11-18T12:21:58;99041.00;;;3.31;100.00
47738;BME280;33502;47.182;27.506;2022-11-18T12:24:39;99040.16;;;3.31;100.00
47738;BME280;33502;47.182;27.506;2022-11-18T12:29:58;99019.91;;;3.36;100.00
47738;BME280;33502;47.182;27.506;2022-11-18T12:32:35;99018.97;;;3.39;100.00
47738;BME280;33502;47.182;27.506;2022-11-18T12:40:04;99006.41;;;3.48;100.00
47738;BME280;33502;47.182;27.506;2022-11-18T12:42:42;99001.22;;;3.47;100.00
47738;BME280;33502;47.182;27.506;2022-11-18T12:50:56;98986.19;;;3.53;100.00
47738;BME280;33502;47.182;27.506;2022-11-18T12:53:42;98995.81;;;3.51;100.00
47738;BME280;33502;47.182;27.506;2022-11-18T12:56:31;98999.94;;;3.59;100.00
47738;BME280;33502;47.182;27.506;2022-11-18T12:58:57;98992.94;;;3.59;100.00
47738;BME280;33502;47.182;27.506;2022-11-18T13:01:26;98992.94;;;3.59;100.00
47738;BME280;33502;47.182;27.506;2022-11-18T13:04:14;98978.91;;;3.62;100.00
47738;BME280;33502;47.182;27.506;2022-11-18T13:06:41;98971.94;;;3.61;100.00
47738;BME280;33502;47.182;27.506;2022-11-18T13:09:14;98972.75;;;3.63;100.00
47738;BME280;33502;47.182;27.506;2022-11-18T13:11:53;98969.22;;;3.64;100.00
47738;BME280;33502;47.182;27.506;2022-11-18T13:14:32;98956.88;;;3.67;100.00
47738;BME280;33502;47.182;27.506;2022-11-18T13:17:37;98947.25;;;3.68;100.00
47738;BME280;33502;47.182;27.506;2022-11-18T13:20:33;98939.41;;;3.68;100.00
47738;BME280;33502;47.182;27.506;2022-11-18T13:23:17;98920.19;;;3.69;100.00
47738;BME280;33502;47.182;27.506;2022-11-18T13:26:13;98926.31;;;3.68;100.00
47738;BME280;33502;47.182;27.506;2022-11-18T13:34:20;98930.72;;;3.67;100.00
47738;BME280;33502;47.182;27.506;2022-11-18T13:36:48;98939.34;;;3.69;100.00
47738;BME280;33502;47.182;27.506;2022-11-18T13:39:28;98942.03;;;3.68;100.00
47738;BME280;33502;47.182;27.506;2022-11-18T13:42:03;98943.66;;;3.70;100.00
47738;BME280;33502;47.182;27.506;2022-11-18T13:44:34;98947.06;;;3.72;100.00
47738;BME280;33502;47.182;27.506;2022-11-18T13:52:14;98950.91;;;3.64;100.00
47738;BME280;33502;47.182;27.506;2022-11-18T13:54:41;98941.97;;;3.69;100.00
47738;BME280;33502;47.182;27.506;2022-11-18T13:57:16;98940.19;;;3.70;100.00
47738;BME280;33502;47.182;27.506;2022-11-18T13:59:45;98944.47;;;3.72;100.00
47738;BME280;33502;47.182;27.506;2022-11-18T14:02:12;98947.91;;;3.75;100.00
47738;BME280;33502;47.182;27.506;2022-11-18T14:04:48;98948.75;;;3.75;100.00
47738;BME280;33502;47.182;27.506;2022-11-18T14:07:35;98950.44;;;3.76;100.00
47738;BME280;33502;47.182;27.506;2022-11-18T14:10:07;98948.69;;;3.77;100.00
47738;BME280;33502;47.182;27.506;2022-11-18T14:12:34;98949.53;;;3.77;100.00
47738;BME280;33502;47.182;27.506;2022-11-18T14:15:22;98948.69;;;3.77;100.00
47738;BME280;33502;47.182;27.506;2022-11-18T14:17:59;98948.56;;;3.80;100.00
47738;BME280;33502;47.182;27.506;2022-11-18T14:20:27;98940.63;;;3.83;100.00
47738;BME280;33502;47.182;27.506;2022-11-18T14:22:58;98938.88;;;3.82;100.00
47738;BME280;33502;47.182;27.506;2022-11-18T14:25:26;98943.34;;;3.80;100.00
47738;BME280;33502;47.182;27.506;2022-11-18T14:27:57;98945.84;;;3.83;100.00
47738;BME280;33502;47.182;27.506;2022-11-18T14:30:35;98950.00;;;3.88;100.00
47738;BME280;33502;47.182;27.506;2022-11-18T14:33:19;98951.69;;;3.89;100.00
47738;BME280;33502;47.182;27.506;2022-11-18T14:36:30;98957.72;;;3.91;100.00
47738;BME280;33502;47.182;27.506;2022-11-18T14:38:48;98958.66;;;3.90;100.00
47738;BME280;33502;47.182;27.506;2022-11-18T14:41:17;98949.81;;;3.93;100.00
47738;BME280;33502;47.182;27.506;2022-11-18T14:44:06;98954.22;;;3.92;100.00
47738;BME280;33502;47.182;27.506;2022-11-18T14:46:34;98957.66;;;3.93;100.00
47738;BME280;33502;47.182;27.506;2022-11-18T14:49:03;98953.97;;;3.99;100.00
47738;BME280;33502;47.182;27.506;2022-11-18T14:51:30;98949.47;;;4.02;100.00
47738;BME280;33502;47.182;27.506;2022-11-18T14:53:56;98948.56;;;4.03;100.00
47738;BME280;33502;47.182;27.506;2022-11-18T14:56:26;98945.88;;;4.05;100.00
47738;BME280;33502;47.182;27.506;2022-11-18T14:58:52;98942.31;;;4.07;100.00
47738;BME280;33502;47.182;27.506;2022-11-18T15:01:19;98947.53;;;4.07;100.00
47738;BME280;33502;47.182;27.506;2022-11-18T15:03:44;98941.31;;;4.10;100.00
47738;BME280;33502;47.182;27.506;2022-11-18T15:06:14;98937.81;;;4.11;100.00